Time;durP1;ratioP1;P1;durP2;ratioP2;P2;SDS_P1;SDS_P2;PMS_P1;PMS_P2;Temp;Humidity;BMP_temperature;BMP_pressure;BME280_temperature;BME280_humidity;BME280_pressure;Samples;Min_cycle;Max_cycle;Signal;HPM_P1;HPM_P2
2024/01/15 00:02:14;;;;;;;0.77;0.10;;;;;;;;;;5045656;28;20420;-61
2024/01/15 00:04:40;;;;;;;0.25;0.17;;;;;;;;;;5045757;28;20084;-61
2024/01/15 00:07:07;;;;;;;1.10;0.20;;;;;;;;;;5044759;28;20551;-60
2024/01/15 00:09:33;;;;;;;0.50;0.13;;;;;;;;;;5045703;28;20060;-61
2024/01/15 00:11:59;;;;;;;1.00;0.10;;;;;;;;;;5045734;28;20159;-61
2024/01/15 00:14:25;;;;;;;3.00;0.68;;;;;;;;;;5045237;28;20067;-60
2024/01/15 00:16:51;;;;;;;0.40;0.30;;;;;;;;;;5045951;28;20064;-61
2024/01/15 00:19:20;;;;;;;0.95;0.20;;;;;;;;;;5046233;28;21349;-61
2024/01/15 00:21:46;;;;;;;2.67;0.52;;;;;;;;;;5045454;28;20041;-61
2024/01/15 00:24:12;;;;;;;1.63;1.20;;;;;;;;;;5045821;28;20044;-61
2024/01/15 00:26:38;;;;;;;0.55;0.20;;;;;;;;;;5045724;28;20166;-61
2024/01/15 00:29:04;;;;;;;2.55;0.20;;;;;;;;;;5044759;28;20502;-61
2024/01/15 00:31:30;;;;;;;0.93;0.20;;;;;;;;;;5045385;28;20037;-60
2024/01/15 00:33:57;;;;;;;1.35;0.30;;;;;;;;;;5037454;28;20037;-60
2024/01/15 00:36:23;;;;;;;2.40;0.22;;;;;;;;;;5041209;28;20037;-60
2024/01/15 00:38:49;;;;;;;0.47;0.30;;;;;;;;;;5046163;28;20052;-59
2024/01/15 00:41:15;;;;;;;1.02;0.30;;;;;;;;;;5046486;28;20483;-59
2024/01/15 00:43:42;;;;;;;0.50;0.35;;;;;;;;;;5044644;28;20086;-61
2024/01/15 00:46:08;;;;;;;2.25;0.15;;;;;;;;;;5046795;28;20052;-60
2024/01/15 00:48:34;;;;;;;0.82;0.55;;;;;;;;;;5045482;28;20037;-60
2024/01/15 00:51:00;;;;;;;0.98;0.20;;;;;;;;;;5049074;28;20183;-61
2024/01/15 00:53:26;;;;;;;0.03;0.00;;;;;;;;;;5043240;28;20427;-60
2024/01/15 00:55:52;;;;;;;2.72;0.28;;;;;;;;;;5045645;28;20036;-59
2024/01/15 00:58:19;;;;;;;0.70;0.40;;;;;;;;;;5044406;28;20772;-61
2024/01/15 01:00:45;;;;;;;0.85;0.20;;;;;;;;;;5047318;28;20119;-61
2024/01/15 01:03:11;;;;;;;1.73;0.40;;;;;;;;;;5048243;28;20194;-61
2024/01/15 01:05:37;;;;;;;1.00;0.20;;;;;;;;;;5048599;28;20044;-61
2024/01/15 01:08:03;;;;;;;1.05;0.35;;;;;;;;;;5048850;28;20591;-60
2024/01/15 01:10:30;;;;;;;1.30;0.20;;;;;;;;;;5048078;28;20044;-61
2024/01/15 01:12:56;;;;;;;0.47;0.25;;;;;;;;;;5048736;28;20510;-60
2024/01/15 01:15:22;;;;;;;1.63;0.30;;;;;;;;;;5049108;28;20055;-61
2024/01/15 01:17:48;;;;;;;0.32;0.30;;;;;;;;;;5048796;28;20080;-61
2024/01/15 01:20:15;;;;;;;0.13;0.10;;;;;;;;;;5048727;28;20137;-61
2024/01/15 01:22:41;;;;;;;0.47;0.28;;;;;;;;;;5049001;28;20033;-60
2024/01/15 01:25:07;;;;;;;1.65;0.20;;;;;;;;;;5048091;28;20047;-61
2024/01/15 01:27:33;;;;;;;0.65;0.20;;;;;;;;;;5030995;28;20063;-61
2024/01/15 01:29:59;;;;;;;0.73;0.20;;;;;;;;;;5048531;28;20070;-61
2024/01/15 01:32:25;;;;;;;0.50;0.20;;;;;;;;;;5045914;28;20688;-60
2024/01/15 01:34:51;;;;;;;1.58;0.30;;;;;;;;;;5048756;28;20130;-61
2024/01/15 01:37:17;;;;;;;3.28;0.45;;;;;;;;;;5047381;28;20029;-61
2024/01/15 01:39:44;;;;;;;0.43;0.10;;;;;;;;;;5048454;28;20041;-61
2024/01/15 01:42:10;;;;;;;1.40;0.28;;;;;;;;;;5048250;28;20519;-61
2024/01/15 01:44:36;;;;;;;0.95;0.22;;;;;;;;;;5046729;28;20045;-60
2024/01/15 01:47:03;;;;;;;0.70;0.10;;;;;;;;;;5046002;28;20091;-59
2024/01/15 01:49:29;;;;;;;0.30;0.10;;;;;;;;;;5028631;28;20131;-60
2024/01/15 01:51:58;;;;;;;0.65;0.25;;;;;;;;;;5046780;28;20047;-61
2024/01/15 01:54:25;;;;;;;0.95;0.17;;;;;;;;;;5048023;28;20056;-60
2024/01/15 01:56:52;;;;;;;2.00;0.28;;;;;;;;;;5048715;28;20036;-60
2024/01/15 01:59:18;;;;;;;1.30;0.30;;;;;;;;;;5044462;28;20029;-61
2024/01/15 02:01:45;;;;;;;0.60;0.35;;;;;;;;;;5044397;28;20816;-61
2024/01/15 02:04:14;;;;;;;1.88;0.30;;;;;;;;;;5047411;28;20622;-60
2024/01/15 02:06:40;;;;;;;1.75;0.32;;;;;;;;;;5047223;28;20076;-61
2024/01/15 02:09:06;;;;;;;1.45;0.20;;;;;;;;;;5047789;28;20068;-60
2024/01/15 02:11:32;;;;;;;1.50;0.32;;;;;;;;;;5029835;28;20048;-60
2024/01/15 02:13:58;;;;;;;0.25;0.10;;;;;;;;;;5047137;28;20094;-61
2024/01/15 02:16:24;;;;;;;0.20;0.10;;;;;;;;;;5047742;28;20371;-61
2024/01/15 02:18:50;;;;;;;0.85;0.20;;;;;;;;;;5030128;28;20136;-61
2024/01/15 02:21:16;;;;;;;0.20;0.10;;;;;;;;;;5046800;28;20047;-61
2024/01/15 02:23:42;;;;;;;0.60;0.20;;;;;;;;;;5047697;28;20040;-59
2024/01/15 02:26:08;;;;;;;0.20;0.10;;;;;;;;;;5047641;28;20415;-60
2024/01/15 02:28:35;;;;;;;1.65;0.30;;;;;;;;;;5029045;28;20124;-61
2024/01/15 02:31:01;;;;;;;0.08;0.00;;;;;;;;;;5047432;28;20079;-61
2024/01/15 02:33:27;;;;;;;0.98;0.00;;;;;;;;;;5047316;28;20040;-59
2024/01/15 02:35:53;;;;;;;0.30;0.10;;;;;;;;;;5044971;28;20045;-61
2024/01/15 02:38:19;;;;;;;0.17;0.10;;;;;;;;;;5046417;28;20387;-60
2024/01/15 02:40:45;;;;;;;0.70;0.20;;;;;;;;;;5046628;28;20067;-61
2024/01/15 02:43:13;;;;;;;0.75;0.20;;;;;;;;;;5044607;28;20044;-60
2024/01/15 02:45:39;;;;;;;1.10;0.40;;;;;;;;;;5046399;28;20045;-60
2024/01/15 02:48:05;;;;;;;3.78;0.40;;;;;;;;;;5046477;28;20029;-60
2024/01/15 02:50:31;;;;;;;1.50;0.22;;;;;;;;;;5047041;28;20055;-60
2024/01/15 02:52:57;;;;;;;1.80;0.40;;;;;;;;;;5047035;28;20044;-59
2024/01/15 02:55:23;;;;;;;1.90;0.38;;;;;;;;;;5046263;28;20047;-60
2024/01/15 02:57:49;;;;;;;1.25;0.45;;;;;;;;;;5047416;28;20033;-61
2024/01/15 03:00:15;;;;;;;0.75;0.38;;;;;;;;;;5047015;28;20598;-60
2024/01/15 03:02:44;;;;;;;2.83;0.55;;;;;;;;;;5046329;28;20102;-60
2024/01/15 03:05:10;;;;;;;0.88;0.40;;;;;;;;;;5046413;28;20124;-59
2024/01/15 03:07:37;;;;;;;0.22;0.17;;;;;;;;;;5046758;28;20049;-59
2024/01/15 03:10:03;;;;;;;0.47;0.10;;;;;;;;;;5045770;28;20447;-60
2024/01/15 03:12:29;;;;;;;2.08;0.30;;;;;;;;;;5046607;28;20136;-60
2024/01/15 03:14:55;;;;;;;0.20;0.13;;;;;;;;;;5046717;28;20056;-60
2024/01/15 03:17:21;;;;;;;0.10;0.03;;;;;;;;;;5046504;28;20037;-61
2024/01/15 03:19:47;;;;;;;1.58;0.40;;;;;;;;;;5042395;28;20626;-60
2024/01/15 03:22:13;;;;;;;0.22;0.03;;;;;;;;;;5045062;28;20057;-60
2024/01/15 03:24:39;;;;;;;0.13;0.08;;;;;;;;;;5041680;28;20128;-60
2024/01/15 03:27:05;;;;;;;0.30;0.20;;;;;;;;;;5035415;28;20069;-60
2024/01/15 03:29:31;;;;;;;0.43;0.20;;;;;;;;;;5035144;28;20065;-60
2024/01/15 03:31:57;;;;;;;0.22;0.20;;;;;;;;;;5034511;28;20566;-60
2024/01/15 03:34:23;;;;;;;2.90;0.57;;;;;;;;;;5033398;28;20094;-59
2024/01/15 03:36:49;;;;;;;0.75;0.30;;;;;;;;;;5042868;28;20467;-61
2024/01/15 03:39:15;;;;;;;4.50;0.65;;;;;;;;;;5038647;28;20041;-60
2024/01/15 03:41:41;;;;;;;2.38;0.32;;;;;;;;;;5022341;28;20056;-60
2024/01/15 03:44:07;;;;;;;3.60;1.55;;;;;;;;;;5033631;28;20037;-60
2024/01/15 03:46:33;;;;;;;1.02;0.30;;;;;;;;;;5041860;28;20707;-60
2024/01/15 03:48:59;;;;;;;3.90;0.88;;;;;;;;;;5040254;28;20041;-59
2024/01/15 03:51:25;;;;;;;4.03;0.47;;;;;;;;;;5040549;28;20044;-60
2024/01/15 03:53:51;;;;;;;5.38;0.90;;;;;;;;;;5039545;28;20442;-60
2024/01/15 03:56:17;;;;;;;4.28;1.08;;;;;;;;;;5038675;28;20049;-60
2024/01/15 03:58:43;;;;;;;3.88;0.68;;;;;;;;;;5041126;28;20482;-60
2024/01/15 04:01:10;;;;;;;3.50;0.70;;;;;;;;;;5042076;28;20145;-60
2024/01/15 04:03:36;;;;;;;2.40;0.50;;;;;;;;;;5044491;28;20844;-60
2024/01/15 04:06:02;;;;;;;1.20;0.55;;;;;;;;;;5042684;28;20180;-60
2024/01/15 04:08:28;;;;;;;4.90;1.08;;;;;;;;;;5037072;28;21629;-60
2024/01/15 04:10:54;;;;;;;8.07;1.40;;;;;;;;;;5042042;28;20072;-60
2024/01/15 04:13:20;;;;;;;3.53;0.57;;;;;;;;;;5037815;28;20041;-60
2024/01/15 04:15:46;;;;;;;3.90;1.10;;;;;;;;;;5039380;28;20045;-60
2024/01/15 04:18:12;;;;;;;4.57;0.88;;;;;;;;;;5037667;28;20045;-59
2024/01/15 04:20:38;;;;;;;2.63;0.50;;;;;;;;;;5037541;28;20463;-59
2024/01/15 04:23:05;;;;;;;3.42;1.27;;;;;;;;;;5036488;28;20099;-59
2024/01/15 04:25:31;;;;;;;1.48;0.90;;;;;;;;;;5038013;28;20051;-59
2024/01/15 04:27:57;;;;;;;2.67;0.60;;;;;;;;;;5035033;28;20166;-60
2024/01/15 04:30:23;;;;;;;1.88;0.40;;;;;;;;;;5035497;28;20584;-60
2024/01/15 04:32:49;;;;;;;1.17;0.22;;;;;;;;;;5040999;28;20040;-60
2024/01/15 04:35:15;;;;;;;2.67;0.30;;;;;;;;;;5044767;28;20036;-60
2024/01/15 04:37:41;;;;;;;4.40;0.45;;;;;;;;;;5038071;28;20483;-59
2024/01/15 04:40:07;;;;;;;1.15;0.30;;;;;;;;;;5031827;28;20045;-60
2024/01/15 04:42:33;;;;;;;0.50;0.08;;;;;;;;;;5038530;28;20059;-59
2024/01/15 04:44:59;;;;;;;2.58;0.45;;;;;;;;;;5035135;28;20041;-60
2024/01/15 04:47:25;;;;;;;0.20;0.10;;;;;;;;;;5034215;28;20041;-59
2024/01/15 04:49:51;;;;;;;0.40;0.13;;;;;;;;;;5035621;28;20045;-59
2024/01/15 04:52:17;;;;;;;1.50;0.32;;;;;;;;;;5042978;28;20041;-60
2024/01/15 04:54:43;;;;;;;0.43;0.13;;;;;;;;;;5044105;28;20045;-60
2024/01/15 04:57:09;;;;;;;0.25;0.20;;;;;;;;;;5039281;28;20395;-60
2024/01/15 04:59:35;;;;;;;0.95;0.20;;;;;;;;;;5044357;28;20041;-60
2024/01/15 05:02:01;;;;;;;1.70;0.20;;;;;;;;;;5044178;28;20075;-60
2024/01/15 05:04:27;;;;;;;0.10;0.00;;;;;;;;;;5038132;28;20130;-61
2024/01/15 05:06:54;;;;;;;0.50;0.17;;;;;;;;;;5045615;28;20584;-60
2024/01/15 05:09:20;;;;;;;1.00;0.22;;;;;;;;;;5044503;28;20060;-60
2024/01/15 05:11:46;;;;;;;0.00;0.00;;;;;;;;;;5045311;28;20048;-60
2024/01/15 05:14:12;;;;;;;0.80;0.20;;;;;;;;;;5045161;28;20734;-60
2024/01/15 05:16:47;;;;;;;0.03;0.00;;;;;;;;;;5044256;28;20124;-60
2024/01/15 05:19:13;;;;;;;0.55;0.10;;;;;;;;;;5044912;28;20047;-60
2024/01/15 05:21:39;;;;;;;1.30;0.05;;;;;;;;;;5043881;28;20383;-60
2024/01/15 05:24:05;;;;;;;0.88;0.50;;;;;;;;;;5035898;28;20052;-59
2024/01/15 05:26:31;;;;;;;0.10;0.00;;;;;;;;;;5045556;28;20048;-60
2024/01/15 05:28:57;;;;;;;0.10;0.05;;;;;;;;;;5048768;28;20045;-60
2024/01/15 05:31:23;;;;;;;1.23;0.10;;;;;;;;;;5048713;28;20033;-60
2024/01/15 05:33:49;;;;;;;0.30;0.13;;;;;;;;;;5048722;28;20379;-60
2024/01/15 05:36:15;;;;;;;0.65;0.10;;;;;;;;;;5047746;28;20099;-59
2024/01/15 05:38:41;;;;;;;0.00;0.00;;;;;;;;;;5047776;28;20521;-60
2024/01/15 05:41:07;;;;;;;0.38;0.30;;;;;;;;;;5041124;28;20044;-60
2024/01/15 05:43:33;;;;;;;0.25;0.20;;;;;;;;;;5047734;28;20103;-60
2024/01/15 05:45:59;;;;;;;0.05;0.00;;;;;;;;;;5044539;28;20129;-60
2024/01/15 05:48:25;;;;;;;0.10;0.10;;;;;;;;;;5042370;28;20044;-60
2024/01/15 05:50:51;;;;;;;0.00;0.00;;;;;;;;;;5042624;28;20560;-60
2024/01/15 05:53:17;;;;;;;0.10;0.10;;;;;;;;;;5046659;28;20057;-60
2024/01/15 05:55:43;;;;;;;0.63;0.10;;;;;;;;;;5048338;28;20590;-60
2024/01/15 05:58:09;;;;;;;1.40;0.10;;;;;;;;;;5047294;28;20095;-60
2024/01/15 06:00:35;;;;;;;2.28;0.30;;;;;;;;;;5044565;28;20506;-60
2024/01/15 06:03:02;;;;;;;0.55;0.10;;;;;;;;;;5047510;28;20453;-59
2024/01/15 06:05:28;;;;;;;1.30;0.10;;;;;;;;;;5043087;28;20249;-60
2024/01/15 06:07:54;;;;;;;0.80;0.17;;;;;;;;;;5048633;28;20045;-60
2024/01/15 06:10:20;;;;;;;0.77;0.10;;;;;;;;;;5047580;28;20049;-60
2024/01/15 06:12:46;;;;;;;0.20;0.20;;;;;;;;;;5047605;28;20045;-60
2024/01/15 06:15:12;;;;;;;0.10;0.08;;;;;;;;;;5047909;28;20140;-59
2024/01/15 06:17:39;;;;;;;0.50;0.20;;;;;;;;;;5047692;28;20495;-59
2024/01/15 06:20:05;;;;;;;4.53;0.30;;;;;;;;;;5046932;28;20433;-59
2024/01/15 06:22:31;;;;;;;2.15;0.52;;;;;;;;;;5047726;28;20073;-60
2024/01/15 06:24:57;;;;;;;1.90;0.20;;;;;;;;;;5039530;28;20076;-60
2024/01/15 06:27:23;;;;;;;1.05;0.17;;;;;;;;;;5043113;28;20153;-59
2024/01/15 06:29:49;;;;;;;0.98;0.22;;;;;;;;;;5047432;28;20120;-60
2024/01/15 06:32:15;;;;;;;1.98;0.50;;;;;;;;;;5047478;28;20123;-60
2024/01/15 06:34:41;;;;;;;1.88;0.50;;;;;;;;;;5043869;28;20816;-58
2024/01/15 06:37:07;;;;;;;1.05;0.20;;;;;;;;;;5047556;28;20056;-59
2024/01/15 06:39:33;;;;;;;0.35;0.17;;;;;;;;;;5046020;28;20139;-60
2024/01/15 06:41:59;;;;;;;0.17;0.17;;;;;;;;;;5028993;28;20053;-60
2024/01/15 06:44:25;;;;;;;0.20;0.10;;;;;;;;;;5040424;28;20036;-60
2024/01/15 06:46:51;;;;;;;0.30;0.10;;;;;;;;;;5043830;28;20160;-60
2024/01/15 06:49:17;;;;;;;0.50;0.10;;;;;;;;;;5046113;28;20411;-59
2024/01/15 06:51:43;;;;;;;0.45;0.10;;;;;;;;;;5041946;28;20045;-60
2024/01/15 06:54:09;;;;;;;0.25;0.17;;;;;;;;;;5046682;28;20839;-60
2024/01/15 06:56:35;;;;;;;0.10;0.05;;;;;;;;;;5047245;28;20120;-60
2024/01/15 06:59:02;;;;;;;0.57;0.20;;;;;;;;;;5044560;28;20029;-59
2024/01/15 07:01:28;;;;;;;1.90;0.40;;;;;;;;;;5040217;28;20099;-60
2024/01/15 07:03:54;;;;;;;0.63;0.10;;;;;;;;;;5047062;28;20486;-60
2024/01/15 07:06:20;;;;;;;1.05;0.52;;;;;;;;;;5041717;28;20125;-59
2024/01/15 07:08:46;;;;;;;0.17;0.10;;;;;;;;;;5045132;28;20045;-60
2024/01/15 07:11:12;;;;;;;0.10;0.10;;;;;;;;;;5046612;28;20418;-60
2024/01/15 07:13:38;;;;;;;0.25;0.00;;;;;;;;;;5043993;28;20056;-59
2024/01/15 07:16:04;;;;;;;0.82;0.10;;;;;;;;;;5042860;28;20051;-60
2024/01/15 07:18:31;;;;;;;0.10;0.10;;;;;;;;;;5046598;28;20049;-60
2024/01/15 07:20:57;;;;;;;0.20;0.10;;;;;;;;;;5046769;28;20076;-59
2024/01/15 07:23:23;;;;;;;0.00;0.00;;;;;;;;;;5046485;28;20517;-60
2024/01/15 07:25:49;;;;;;;0.20;0.03;;;;;;;;;;5046129;28;20047;-60
2024/01/15 07:28:15;;;;;;;0.75;0.20;;;;;;;;;;5046348;28;20446;-61
2024/01/15 07:30:41;;;;;;;0.75;0.60;;;;;;;;;;5045751;28;20079;-60
2024/01/15 07:33:07;;;;;;;0.20;0.10;;;;;;;;;;5042225;28;20077;-61
2024/01/15 07:35:33;;;;;;;0.10;0.10;;;;;;;;;;5033676;28;20055;-61
2024/01/15 07:37:59;;;;;;;0.25;0.00;;;;;;;;;;5042255;28;20107;-60
2024/01/15 07:40:25;;;;;;;0.40;0.10;;;;;;;;;;5040775;28;20073;-60
2024/01/15 07:42:52;;;;;;;0.52;0.20;;;;;;;;;;5045566;28;20119;-61
2024/01/15 07:45:18;;;;;;;1.65;0.30;;;;;;;;;;5044765;28;20068;-60
2024/01/15 07:47:44;;;;;;;0.95;0.50;;;;;;;;;;5044849;28;20120;-60
2024/01/15 07:50:10;;;;;;;0.60;0.20;;;;;;;;;;5045780;28;20820;-60
2024/01/15 07:52:36;;;;;;;1.65;0.20;;;;;;;;;;5028802;28;20530;-61
2024/01/15 07:55:05;;;;;;;0.30;0.20;;;;;;;;;;5046593;28;20072;-60
2024/01/15 07:57:31;;;;;;;0.98;0.10;;;;;;;;;;5039342;28;20123;-60
2024/01/15 07:59:57;;;;;;;1.25;0.10;;;;;;;;;;5036872;28;20037;-60
2024/01/15 08:02:23;;;;;;;0.52;0.10;;;;;;;;;;5045344;28;20055;-60
2024/01/15 08:04:49;;;;;;;0.45;0.10;;;;;;;;;;5044655;28;20032;-60
2024/01/15 08:07:15;;;;;;;0.98;0.10;;;;;;;;;;5044212;28;20068;-61
2024/01/15 08:09:41;;;;;;;0.10;0.10;;;;;;;;;;5042288;28;20088;-61
2024/01/15 08:12:08;;;;;;;1.30;0.30;;;;;;;;;;5037638;28;20041;-61
2024/01/15 08:14:34;;;;;;;1.67;0.25;;;;;;;;;;5035503;28;20418;-61
2024/01/15 08:17:01;;;;;;;1.75;0.20;;;;;;;;;;5037718;28;20084;-59
2024/01/15 08:19:27;;;;;;;0.28;0.15;;;;;;;;;;5041754;28;20071;-60
2024/01/15 08:21:53;;;;;;;2.10;0.47;;;;;;;;;;5048366;28;20045;-56
2024/01/15 08:24:19;;;;;;;1.20;0.10;;;;;;;;;;5042485;28;20036;-57
2024/01/15 08:26:45;;;;;;;0.98;0.20;;;;;;;;;;5043761;28;20044;-59
2024/01/15 08:29:11;;;;;;;0.52;0.22;;;;;;;;;;5044784;28;20057;-58
2024/01/15 08:31:37;;;;;;;0.30;0.20;;;;;;;;;;5033195;28;20037;-58
2024/01/15 08:34:03;;;;;;;0.98;0.13;;;;;;;;;;5043851;28;20071;-57
2024/01/15 08:36:30;;;;;;;2.13;0.40;;;;;;;;;;5044794;28;20491;-58
2024/01/15 08:38:56;;;;;;;0.35;0.30;;;;;;;;;;5041274;28;20462;-57
2024/01/15 08:41:23;;;;;;;0.80;0.28;;;;;;;;;;5034110;28;20036;-59
2024/01/15 08:43:49;;;;;;;0.52;0.10;;;;;;;;;;5033311;28;20399;-60
2024/01/15 08:46:15;;;;;;;1.17;0.30;;;;;;;;;;5037370;28;20045;-60
2024/01/15 08:48:41;;;;;;;0.10;0.10;;;;;;;;;;5030109;28;20507;-59
2024/01/15 08:51:07;;;;;;;0.13;0.10;;;;;;;;;;5031042;28;20049;-59
2024/01/15 08:53:33;;;;;;;0.25;0.10;;;;;;;;;;5028381;28;20099;-61
2024/01/15 08:56:00;;;;;;;0.00;0.00;;;;;;;;;;5027465;28;20430;-59
2024/01/15 08:58:26;;;;;;;0.10;0.10;;;;;;;;;;5034636;28;20045;-60
2024/01/15 09:00:52;;;;;;;0.22;0.00;;;;;;;;;;5024372;28;20071;-61
2024/01/15 09:03:18;;;;;;;1.05;0.28;;;;;;;;;;5028992;28;20530;-62
2024/01/15 09:05:44;;;;;;;0.65;0.00;;;;;;;;;;5046855;28;20510;-62
2024/01/15 09:08:10;;;;;;;0.10;0.10;;;;;;;;;;5046836;28;20037;-61
2024/01/15 09:10:36;;;;;;;1.08;0.10;;;;;;;;;;5046950;28;20061;-61
2024/01/15 09:13:04;;;;;;;0.10;0.10;;;;;;;;;;5048053;28;20099;-61
2024/01/15 09:15:30;;;;;;;0.20;0.03;;;;;;;;;;5046574;28;20103;-61
2024/01/15 09:17:58;;;;;;;0.70;0.20;;;;;;;;;;5047633;28;20040;-61
2024/01/15 09:20:25;;;;;;;1.45;0.10;;;;;;;;;;5047389;28;20075;-61
2024/01/15 09:22:52;;;;;;;0.10;0.05;;;;;;;;;;5045989;28;20049;-61
2024/01/15 09:25:18;;;;;;;1.35;0.10;;;;;;;;;;5047028;28;20051;-61
2024/01/15 09:27:44;;;;;;;0.17;0.03;;;;;;;;;;5046547;28;20520;-61
2024/01/15 09:30:11;;;;;;;0.95;0.17;;;;;;;;;;5046736;28;20037;-61
2024/01/15 09:32:37;;;;;;;2.13;0.28;;;;;;;;;;5048351;28;20124;-61
2024/01/15 09:35:03;;;;;;;0.65;0.20;;;;;;;;;;5048262;28;20236;-61
2024/01/15 09:37:29;;;;;;;0.13;0.10;;;;;;;;;;5047514;28;20033;-61
2024/01/15 09:39:55;;;;;;;2.05;0.20;;;;;;;;;;5048562;28;20114;-60
2024/01/15 09:42:22;;;;;;;2.05;0.47;;;;;;;;;;5048062;28;20491;-61
2024/01/15 09:44:48;;;;;;;1.90;0.30;;;;;;;;;;5047977;28;20391;-61
2024/01/15 09:47:16;;;;;;;1.95;0.25;;;;;;;;;;5047978;28;20052;-61
2024/01/15 09:49:42;;;;;;;0.63;0.38;;;;;;;;;;5047281;28;20411;-62
2024/01/15 09:52:08;;;;;;;3.63;0.55;;;;;;;;;;5048263;28;20052;-61
2024/01/15 09:54:34;;;;;;;1.10;0.25;;;;;;;;;;5047919;28;20049;-62
2024/01/15 09:57:01;;;;;;;2.45;0.30;;;;;;;;;;5029099;28;20045;-62
2024/01/15 09:59:27;;;;;;;1.95;0.20;;;;;;;;;;5048524;28;20033;-61
2024/01/15 10:01:54;;;;;;;1.52;0.30;;;;;;;;;;5048315;28;20051;-61
2024/01/15 10:04:20;;;;;;;2.33;0.30;;;;;;;;;;5046992;28;20120;-61
2024/01/15 10:06:47;;;;;;;1.08;0.60;;;;;;;;;;5047989;28;20461;-61
2024/01/15 10:09:14;;;;;;;0.35;0.13;;;;;;;;;;5047577;28;20488;-62
2024/01/15 10:11:42;;;;;;;1.65;0.20;;;;;;;;;;5007414;28;20116;-61
2024/01/15 10:14:08;;;;;;;2.35;0.20;;;;;;;;;;5006632;28;20030;-61
2024/01/15 10:16:34;;;;;;;0.17;0.10;;;;;;;;;;5007822;28;20650;-61
2024/01/15 10:19:00;;;;;;;0.95;0.10;;;;;;;;;;5007170;28;20034;-61
2024/01/15 10:21:26;;;;;;;0.43;0.10;;;;;;;;;;5008226;28;20394;-62
2024/01/15 10:23:52;;;;;;;0.10;0.00;;;;;;;;;;5007650;28;20069;-61
2024/01/15 10:26:18;;;;;;;1.20;0.20;;;;;;;;;;5007013;28;20042;-62
2024/01/15 10:28:44;;;;;;;0.93;0.10;;;;;;;;;;5007640;28;20080;-62
2024/01/15 10:31:11;;;;;;;0.43;0.17;;;;;;;;;;5007587;28;20535;-61
2024/01/15 10:33:38;;;;;;;1.50;0.60;;;;;;;;;;5007172;28;20056;-61
2024/01/15 10:36:10;;;;;;;0.98;0.10;;;;;;;;;;5007477;28;20049;-61
2024/01/15 10:38:37;;;;;;;0.40;0.20;;;;;;;;;;5007725;28;20056;-61
2024/01/15 10:41:03;;;;;;;1.80;0.28;;;;;;;;;;5007003;28;20045;-60
2024/01/15 10:43:29;;;;;;;1.20;0.60;;;;;;;;;;5007311;28;20117;-61
2024/01/15 10:45:55;;;;;;;1.33;0.55;;;;;;;;;;5007036;28;20129;-60
2024/01/15 10:48:21;;;;;;;0.17;0.13;;;;;;;;;;5007373;28;20061;-60
2024/01/15 10:50:47;;;;;;;1.65;0.10;;;;;;;;;;5007180;28;20052;-60
2024/01/15 10:53:14;;;;;;;0.17;0.03;;;;;;;;;;5006471;28;20049;-61
2024/01/15 10:55:41;;;;;;;0.32;0.03;;;;;;;;;;5007298;28;20042;-60
2024/01/15 10:58:08;;;;;;;1.65;0.10;;;;;;;;;;5007147;28;20046;-60
2024/01/15 11:00:34;;;;;;;0.73;0.20;;;;;;;;;;5006324;28;20046;-61
2024/01/15 11:03:01;;;;;;;1.38;0.30;;;;;;;;;;5007031;28;20038;-60
2024/01/15 11:05:27;;;;;;;0.65;0.10;;;;;;;;;;5007239;28;20033;-61
2024/01/15 11:07:56;;;;;;;0.98;0.22;;;;;;;;;;5006563;28;20546;-61
2024/01/15 11:10:42;;;;;;;1.60;0.30;;;;;;;;;;5025548;28;20064;-61
2024/01/15 11:13:14;;;;;;;0.20;0.13;;;;;;;;;;5040808;28;20100;-60
2024/01/15 11:16:15;;;;;;;3.78;0.20;;;;;;;;;;5045590;28;20041;-61
2024/01/15 11:18:41;;;;;;;2.33;0.22;;;;;;;;;;4945555;28;20602;-61
2024/01/15 11:21:16;;;;;;;0.52;0.20;;;;;;;;;;5022432;28;20053;-61
2024/01/15 11:23:44;;;;;;;0.55;0.28;;;;;;;;;;5046199;28;20076;-62
2024/01/15 11:26:36;;;;;;;0.32;0.10;;;;;;;;;;5045858;28;20041;-61
2024/01/15 11:29:28;;;;;;;1.80;0.30;;;;;;;;;;5006158;28;20415;-61
2024/01/15 11:31:58;;;;;;;0.15;0.10;;;;;;;;;;5046925;28;20047;-61
2024/01/15 11:34:44;;;;;;;0.50;0.10;;;;;;;;;;5046420;28;20547;-61
2024/01/15 11:37:13;;;;;;;0.40;0.20;;;;;;;;;;5022868;28;20041;-61
2024/01/15 11:39:42;;;;;;;0.35;0.10;;;;;;;;;;5046007;28;20041;-61
2024/01/15 11:42:10;;;;;;;0.25;0.10;;;;;;;;;;5045104;28;20048;-61
2024/01/15 11:44:37;;;;;;;2.15;0.22;;;;;;;;;;5046014;28;20048;-62
2024/01/15 11:47:04;;;;;;;0.68;0.13;;;;;;;;;;5046021;28;20063;-62
2024/01/15 11:49:49;;;;;;;0.15;0.10;;;;;;;;;;5045198;28;20407;-61
2024/01/15 11:52:18;;;;;;;0.98;0.15;;;;;;;;;;5045726;28;20044;-62
2024/01/15 11:54:59;;;;;;;1.27;0.13;;;;;;;;;;5045720;28;20048;-61
2024/01/15 11:57:29;;;;;;;1.55;0.63;;;;;;;;;;5045164;28;20402;-61
2024/01/15 11:59:55;;;;;;;0.10;0.10;;;;;;;;;;5045979;28;20571;-59
2024/01/15 12:02:21;;;;;;;0.15;0.00;;;;;;;;;;5045499;28;20049;-61
2024/01/15 12:04:47;;;;;;;0.43;0.10;;;;;;;;;;5045062;28;20040;-62
2024/01/15 12:07:13;;;;;;;0.98;0.20;;;;;;;;;;5045588;28;20486;-61
2024/01/15 12:09:44;;;;;;;1.58;0.20;;;;;;;;;;5045362;28;20072;-61
2024/01/15 12:12:14;;;;;;;0.45;0.10;;;;;;;;;;5027095;28;20398;-60
2024/01/15 12:14:40;;;;;;;0.05;0.03;;;;;;;;;;5045518;28;20045;-61
2024/01/15 12:17:06;;;;;;;0.30;0.20;;;;;;;;;;5045012;28;20044;-61
2024/01/15 12:19:32;;;;;;;0.68;0.20;;;;;;;;;;5045235;28;20040;-61
2024/01/15 12:21:58;;;;;;;1.08;0.13;;;;;;;;;;5045846;28;20040;-62
2024/01/15 12:24:24;;;;;;;1.48;0.30;;;;;;;;;;5045224;28;20043;-61
2024/01/15 12:26:50;;;;;;;3.00;0.30;;;;;;;;;;5044871;28;20075;-61
2024/01/15 12:29:18;;;;;;;0.73;0.30;;;;;;;;;;5045271;28;20475;-61
2024/01/15 12:31:47;;;;;;;5.03;0.40;;;;;;;;;;5044289;28;20044;-61
2024/01/15 12:34:13;;;;;;;3.25;0.73;;;;;;;;;;5045005;28;20054;-61
2024/01/15 12:36:40;;;;;;;1.58;0.22;;;;;;;;;;5044437;28;20098;-61
2024/01/15 12:39:08;;;;;;;1.17;0.30;;;;;;;;;;5044192;28;20063;-61
2024/01/15 12:41:35;;;;;;;0.68;0.22;;;;;;;;;;5045361;28;20319;-61
2024/01/15 12:44:01;;;;;;;0.80;0.50;;;;;;;;;;5044844;28;20501;-61
2024/01/15 12:46:27;;;;;;;0.57;0.30;;;;;;;;;;5044775;28;20045;-61
2024/01/15 12:48:53;;;;;;;1.50;0.30;;;;;;;;;;5045077;28;20049;-61
2024/01/15 12:51:24;;;;;;;2.95;0.50;;;;;;;;;;5044835;28;20052;-61
2024/01/15 12:53:50;;;;;;;3.65;0.63;;;;;;;;;;5044734;28;20048;-60
2024/01/15 12:56:16;;;;;;;0.75;0.25;;;;;;;;;;5046164;28;20513;-62
2024/01/15 12:58:42;;;;;;;0.63;0.38;;;;;;;;;;5046210;28;20036;-61
2024/01/15 13:01:08;;;;;;;0.57;0.35;;;;;;;;;;5044947;28;20032;-60
2024/01/15 13:03:34;;;;;;;1.85;0.65;;;;;;;;;;5044710;28;20037;-61
2024/01/15 13:06:00;;;;;;;1.27;0.43;;;;;;;;;;5044923;28;20130;-61
2024/01/15 13:08:28;;;;;;;2.78;0.40;;;;;;;;;;5044255;28;20049;-60
2024/01/15 13:10:56;;;;;;;2.25;0.70;;;;;;;;;;5044650;28;20057;-60
2024/01/15 13:13:22;;;;;;;2.50;0.60;;;;;;;;;;5044595;28;20448;-61
2024/01/15 13:15:48;;;;;;;4.13;1.00;;;;;;;;;;5044473;28;20497;-61
2024/01/15 13:18:14;;;;;;;0.88;0.47;;;;;;;;;;5044757;28;20082;-59
2024/01/15 13:20:40;;;;;;;0.88;0.57;;;;;;;;;;5043935;28;20040;-61
2024/01/15 13:23:06;;;;;;;2.67;0.50;;;;;;;;;;5044658;28;20068;-61
2024/01/15 13:25:35;;;;;;;1.95;0.25;;;;;;;;;;5045085;28;20120;-61
2024/01/15 13:28:02;;;;;;;2.35;0.47;;;;;;;;;;5044020;28;20254;-60
2024/01/15 13:30:28;;;;;;;5.13;0.85;;;;;;;;;;5045116;28;20029;-61
2024/01/15 13:32:56;;;;;;;3.55;0.73;;;;;;;;;;5044388;28;20094;-60
2024/01/15 13:35:22;;;;;;;3.85;0.88;;;;;;;;;;5043673;28;20064;-60
2024/01/15 13:37:48;;;;;;;2.83;0.50;;;;;;;;;;5044614;28;20043;-59
2024/01/15 13:40:19;;;;;;;1.73;0.65;;;;;;;;;;5044564;28;20094;-61
2024/01/15 13:42:47;;;;;;;6.50;0.70;;;;;;;;;;5044078;28;20512;-62
2024/01/15 13:45:16;;;;;;;3.95;0.50;;;;;;;;;;5044526;28;20322;-61
2024/01/15 13:47:45;;;;;;;1.75;0.50;;;;;;;;;;5045289;28;20056;-60
2024/01/15 13:50:11;;;;;;;1.08;0.30;;;;;;;;;;5047131;28;20124;-61
2024/01/15 13:52:37;;;;;;;0.77;0.43;;;;;;;;;;5048291;28;20052;-61
2024/01/15 13:55:04;;;;;;;1.95;0.43;;;;;;;;;;5048083;28;20422;-61
2024/01/15 13:57:30;;;;;;;1.67;0.40;;;;;;;;;;5047346;28;20048;-61
2024/01/15 13:59:56;;;;;;;3.17;0.30;;;;;;;;;;5048365;28;20116;-62
2024/01/15 14:02:22;;;;;;;0.45;0.43;;;;;;;;;;5048093;28;20745;-61
2024/01/15 14:04:48;;;;;;;1.13;0.70;;;;;;;;;;5047220;28;20082;-60
2024/01/15 14:07:15;;;;;;;0.88;0.30;;;;;;;;;;5047823;28;20072;-60
2024/01/15 14:09:41;;;;;;;0.93;0.22;;;;;;;;;;5046743;28;20597;-61
2024/01/15 14:12:08;;;;;;;3.55;0.50;;;;;;;;;;5047652;28;20391;-61
2024/01/15 14:14:34;;;;;;;0.55;0.28;;;;;;;;;;5047428;28;20415;-61
2024/01/15 14:17:00;;;;;;;0.50;0.30;;;;;;;;;;5047208;28;20623;-61
2024/01/15 14:19:26;;;;;;;0.70;0.20;;;;;;;;;;5048058;28;20033;-60
2024/01/15 14:21:52;;;;;;;0.52;0.10;;;;;;;;;;5047612;28;20041;-61
2024/01/15 14:24:18;;;;;;;0.38;0.20;;;;;;;;;;5046661;28;20090;-60
2024/01/15 14:26:45;;;;;;;0.20;0.10;;;;;;;;;;5029622;28;20057;-60
2024/01/15 14:29:11;;;;;;;0.05;0.00;;;;;;;;;;5047705;28;20556;-60
2024/01/15 14:31:37;;;;;;;0.20;0.03;;;;;;;;;;5028498;28;20045;-60
2024/01/15 14:34:03;;;;;;;0.25;0.10;;;;;;;;;;5047163;28;20049;-60
2024/01/15 14:36:29;;;;;;;0.00;0.00;;;;;;;;;;5047778;28;20080;-60
2024/01/15 14:38:55;;;;;;;0.20;0.20;;;;;;;;;;5046913;28;20098;-60
2024/01/15 14:41:21;;;;;;;0.00;0.00;;;;;;;;;;5047310;28;20040;-61